createdAt,value
2023-01-28T00:00:20.078Z,3.03
2023-01-28T00:02:52.495Z,2.85
2023-01-28T00:05:24.932Z,2.92
2023-01-28T00:07:58.052Z,2.38
2023-01-28T00:10:30.380Z,4.15
2023-01-28T00:13:02.732Z,3.20
2023-01-28T00:15:38.030Z,3.60
2023-01-28T00:18:10.463Z,2.80
2023-01-28T00:20:42.797Z,4.25
2023-01-28T00:23:15.234Z,3.38
2023-01-28T00:25:47.576Z,2.92
2023-01-28T00:28:19.910Z,3.13
2023-01-28T00:30:55.019Z,2.90
2023-01-28T00:33:29.563Z,3.08
2023-01-28T00:36:02.101Z,4.20
2023-01-28T00:38:34.969Z,4.20
2023-01-28T00:41:10.676Z,2.75
2023-01-28T00:43:43.432Z,3.13
2023-01-28T00:46:18.469Z,3.38
2023-01-28T00:48:50.921Z,4.80
2023-01-28T00:51:23.328Z,3.00
2023-01-28T00:53:55.713Z,2.85
2023-01-28T00:56:28.077Z,2.75
2023-01-28T00:59:00.439Z,2.53
2023-01-28T01:01:35.604Z,2.83
2023-01-28T01:04:08.059Z,2.20
2023-01-28T01:06:41.656Z,3.42
2023-01-28T01:09:14.035Z,1.92
2023-01-28T01:11:46.400Z,3.70
2023-01-28T01:14:18.721Z,2.58
2023-01-28T01:16:53.681Z,2.22
2023-01-28T01:19:26.686Z,3.72
2023-01-28T01:21:59.036Z,2.95
2023-01-28T01:24:34.168Z,3.30
2023-01-28T01:27:06.599Z,3.85
2023-01-28T01:29:39.475Z,2.38
2023-01-28T01:32:14.424Z,3.00
2023-01-28T01:34:46.837Z,3.28
2023-01-28T01:37:19.175Z,3.50
2023-01-28T01:39:51.512Z,3.80
2023-01-28T01:42:25.911Z,3.53
2023-01-28T01:44:59.718Z,3.42
2023-01-28T01:47:44.565Z,3.38
2023-01-28T01:50:20.150Z,2.05
2023-01-28T01:52:53.898Z,2.58
2023-01-28T01:55:28.658Z,4.32
2023-01-28T01:58:03.315Z,4.28
2023-01-28T02:00:35.661Z,4.85
2023-01-28T02:03:11.117Z,2.28
2023-01-28T02:05:43.521Z,3.10
2023-01-28T02:08:21.755Z,2.92
2023-01-28T02:10:55.885Z,2.95
2023-01-28T02:13:29.867Z,3.53
2023-01-28T02:16:03.402Z,8.13
2023-01-28T02:18:38.578Z,4.05
2023-01-28T02:21:25.982Z,4.57
2023-01-28T02:24:10.264Z,5.05
2023-01-28T02:26:50.350Z,6.38
2023-01-28T02:29:28.279Z,7.75
2023-01-28T02:32:04.490Z,5.45
2023-01-28T02:34:39.323Z,5.70
2023-01-28T02:37:14.850Z,5.20
2023-01-28T02:39:49.231Z,4.72
2023-01-28T02:42:24.408Z,4.03
2023-01-28T02:44:59.418Z,5.38
2023-01-28T02:47:50.528Z,4.13
2023-01-28T02:50:22.903Z,4.10
2023-01-28T02:53:18.708Z,4.82
2023-01-28T02:55:55.334Z,3.92
2023-01-28T02:58:32.091Z,4.53
2023-01-28T03:01:10.608Z,3.80
2023-01-28T03:03:46.700Z,3.38
2023-01-28T03:06:21.746Z,3.05
2023-01-28T03:09:14.237Z,3.80
2023-01-28T03:12:07.528Z,5.15
2023-01-28T03:14:59.035Z,3.08
2023-01-28T03:17:55.955Z,2.67
2023-01-28T03:20:49.050Z,3.40
2023-01-28T03:23:42.362Z,4.38
2023-01-28T03:26:33.930Z,2.90
2023-01-28T03:29:26.650Z,2.97
2023-01-28T03:32:19.108Z,3.08
2023-01-28T03:35:13.443Z,3.05
2023-01-28T03:37:46.515Z,2.42
2023-01-28T03:40:19.149Z,2.58
2023-01-28T03:42:52.478Z,2.25
2023-01-28T03:45:24.872Z,2.20
2023-01-28T03:47:57.223Z,2.10
2023-01-28T03:50:32.176Z,2.65
2023-01-28T03:53:16.321Z,2.42
2023-01-28T03:55:50.316Z,2.75
2023-01-28T03:58:27.116Z,2.63
2023-01-28T04:00:59.560Z,2.70
2023-01-28T04:03:31.895Z,3.50
2023-01-28T04:06:07.656Z,3.60
2023-01-28T04:08:39.969Z,3.53
2023-01-28T04:11:20.122Z,3.22
2023-01-28T04:13:52.803Z,2.78
2023-01-28T04:16:25.280Z,2.92
2023-01-28T04:18:58.900Z,5.93
2023-01-28T04:21:33.886Z,4.25
2023-01-28T04:24:06.699Z,4.18
2023-01-28T04:26:39.131Z,3.92
2023-01-28T04:29:11.485Z,4.93
2023-01-28T04:31:43.913Z,4.47
2023-01-28T04:34:17.487Z,4.28
2023-01-28T04:36:52.458Z,4.32
2023-01-28T04:39:24.780Z,4.28
2023-01-28T04:41:57.158Z,3.88
2023-01-28T04:44:29.527Z,4.93
2023-01-28T04:47:01.887Z,3.67
2023-01-28T04:49:34.264Z,3.75
2023-01-28T04:52:09.205Z,3.63
2023-01-28T04:54:41.540Z,3.20
2023-01-28T04:57:13.876Z,4.50
2023-01-28T04:59:46.215Z,4.05
2023-01-28T05:02:18.615Z,4.65
2023-01-28T05:04:51.023Z,5.47
2023-01-28T05:07:26.104Z,5.68
2023-01-28T05:09:58.515Z,6.93
2023-01-28T05:12:33.080Z,5.50
2023-01-28T05:15:06.123Z,4.43
2023-01-28T05:17:38.570Z,4.05
2023-01-28T05:20:12.375Z,4.53
2023-01-28T05:22:47.268Z,4.47
2023-01-28T05:25:19.790Z,5.50
2023-01-28T05:27:52.690Z,7.05
2023-01-28T05:30:25.120Z,6.88
2023-01-28T05:32:58.194Z,11.20
2023-01-28T05:35:30.657Z,6.07
2023-01-28T05:38:05.682Z,7.65
2023-01-28T05:40:38.091Z,10.32
2023-01-28T05:43:10.449Z,7.57
2023-01-28T05:45:42.835Z,10.90
2023-01-28T05:48:16.374Z,11.93
2023-01-28T05:50:49.121Z,10.38
2023-01-28T05:53:24.208Z,9.35
2023-01-28T05:55:56.595Z,8.50
2023-01-28T05:58:32.124Z,7.90
2023-01-28T06:01:04.958Z,8.65
2023-01-28T06:03:37.357Z,9.27
2023-01-28T06:06:09.717Z,6.95
2023-01-28T06:08:44.688Z,5.45
2023-01-28T06:11:18.439Z,5.93
2023-01-28T06:13:52.020Z,6.43
2023-01-28T06:16:24.374Z,6.07
2023-01-28T06:18:56.722Z,6.38
2023-01-28T06:21:30.298Z,6.00
2023-01-28T06:24:05.478Z,7.72
2023-01-28T06:26:37.908Z,6.75
2023-01-28T06:29:10.633Z,6.15
2023-01-28T06:31:42.987Z,7.38
2023-01-28T06:34:16.072Z,6.70
2023-01-28T06:36:48.477Z,5.25
2023-01-28T06:39:23.601Z,7.07
2023-01-28T06:41:55.937Z,5.95
2023-01-28T06:44:28.299Z,6.57
2023-01-28T06:47:00.685Z,5.97
2023-01-28T06:49:33.012Z,5.80
2023-01-28T06:52:05.595Z,4.97
2023-01-28T06:54:40.521Z,6.57
2023-01-28T06:57:12.935Z,6.28
2023-01-28T06:59:45.287Z,7.25
2023-01-28T07:02:17.666Z,8.02
2023-01-28T07:04:50.034Z,8.48
2023-01-28T07:07:22.383Z,8.27
2023-01-28T07:09:57.311Z,7.95
2023-01-28T07:12:29.761Z,9.23
2023-01-28T07:15:02.112Z,10.35
2023-01-28T07:17:34.548Z,9.88
2023-01-28T07:20:07.895Z,8.35
2023-01-28T07:22:42.013Z,8.60
2023-01-28T07:25:17.467Z,7.78
2023-01-28T07:27:50.532Z,12.02
2023-01-28T07:30:24.293Z,17.20
2023-01-28T07:32:57.137Z,12.07
2023-01-28T07:35:29.877Z,8.30
2023-01-28T07:38:02.367Z,8.52
2023-01-28T07:40:37.371Z,8.20
2023-01-28T07:43:09.989Z,9.30
2023-01-28T07:45:42.410Z,15.52
2023-01-28T07:48:14.821Z,12.13
2023-01-28T07:50:49.600Z,13.18
2023-01-28T07:53:21.935Z,12.52
2023-01-28T07:56:02.070Z,12.05
2023-01-28T07:58:35.047Z,12.00
2023-01-28T08:01:07.430Z,12.38
2023-01-28T08:03:39.841Z,12.27
2023-01-28T08:06:12.245Z,11.40
2023-01-28T08:08:44.600Z,9.20
2023-01-28T08:11:19.553Z,11.68
2023-01-28T08:13:51.916Z,12.27
2023-01-28T08:16:24.299Z,9.52
2023-01-28T08:18:56.708Z,9.98
2023-01-28T08:21:29.086Z,7.85
2023-01-28T08:24:01.484Z,10.15
2023-01-28T08:26:36.619Z,10.50
2023-01-28T08:29:08.998Z,8.95
2023-01-28T08:31:41.440Z,7.72
2023-01-28T08:34:13.839Z,9.40
2023-01-28T08:36:46.269Z,11.35
2023-01-28T08:39:18.849Z,8.63
2023-01-28T08:41:53.786Z,9.27
2023-01-28T08:44:26.133Z,7.93
2023-01-28T08:46:58.486Z,9.30
2023-01-28T08:49:30.857Z,8.48
2023-01-28T08:52:03.233Z,11.15
2023-01-28T08:54:36.625Z,10.15
2023-01-28T08:57:11.557Z,10.45
2023-01-28T08:59:46.209Z,26.65
2023-01-28T09:02:30.850Z,16.05
2023-01-28T09:05:04.290Z,11.77
2023-01-28T09:07:36.968Z,11.23
2023-01-28T09:10:10.083Z,8.23
2023-01-28T09:12:45.199Z,7.75
2023-01-28T09:15:18.089Z,5.22
2023-01-28T09:17:50.486Z,7.18
2023-01-28T09:20:22.845Z,7.65
2023-01-28T09:22:55.516Z,7.35
2023-01-28T09:25:28.062Z,6.72
2023-01-28T09:28:03.346Z,6.70
2023-01-28T09:30:37.524Z,8.18
2023-01-28T09:33:10.171Z,8.15
2023-01-28T09:35:42.571Z,8.45
2023-01-28T09:38:14.949Z,8.82
2023-01-28T09:40:47.452Z,8.00
2023-01-28T09:43:33.446Z,7.07
2023-01-28T09:46:06.295Z,8.00
2023-01-28T09:48:40.885Z,5.80
2023-01-28T09:51:18.429Z,8.85
2023-01-28T09:53:53.269Z,7.28
2023-01-28T09:56:27.108Z,7.00
2023-01-28T09:59:07.162Z,5.90
2023-01-28T10:01:44.748Z,6.57
2023-01-28T10:04:23.246Z,6.45
2023-01-28T10:07:02.707Z,5.93
2023-01-28T10:09:41.511Z,6.90
2023-01-28T10:12:31.026Z,6.35
2023-01-28T10:15:14.384Z,5.85
2023-01-28T10:17:48.917Z,6.07
2023-01-28T10:20:26.016Z,6.38
2023-01-28T10:23:01.620Z,7.25
2023-01-28T10:25:36.004Z,6.18
2023-01-28T10:28:15.146Z,7.00
2023-01-28T10:30:50.415Z,6.82
2023-01-28T10:33:24.607Z,5.05
2023-01-28T10:35:57.891Z,5.40
2023-01-28T10:38:31.712Z,6.35
2023-01-28T10:41:08.553Z,4.70
2023-01-28T10:43:42.612Z,5.95
2023-01-28T10:46:19.974Z,5.72
2023-01-28T10:48:58.632Z,5.57
2023-01-28T10:51:32.021Z,6.10
2023-01-28T10:54:06.091Z,7.47
2023-01-28T10:56:38.502Z,6.82
2023-01-28T10:59:19.948Z,6.47
2023-01-28T11:01:55.625Z,5.40
2023-01-28T11:04:30.292Z,5.70
2023-01-28T11:07:03.393Z,7.63
2023-01-28T11:09:36.655Z,4.72
2023-01-28T11:12:12.706Z,6.40
2023-01-28T11:14:51.321Z,5.82
2023-01-28T11:17:27.124Z,4.93
2023-01-28T11:20:01.323Z,5.57
2023-01-28T11:22:34.919Z,5.57
2023-01-28T11:25:08.952Z,4.63
2023-01-28T11:27:41.419Z,5.65
2023-01-28T11:30:21.369Z,5.78
2023-01-28T11:33:06.369Z,6.10
2023-01-28T11:35:38.717Z,4.70
2023-01-28T11:38:18.794Z,5.38
2023-01-28T11:40:52.129Z,4.93
2023-01-28T11:43:25.866Z,6.32
2023-01-28T11:46:02.698Z,6.82
2023-01-28T11:48:46.167Z,5.95
2023-01-28T11:51:23.833Z,5.13
2023-01-28T11:54:01.106Z,6.03
2023-01-28T11:56:42.948Z,7.05
2023-01-28T11:59:24.889Z,6.22
2023-01-28T12:02:01.986Z,5.47
2023-01-28T12:04:45.621Z,4.70
2023-01-28T12:07:26.545Z,7.43
2023-01-28T12:10:02.123Z,5.22
2023-01-28T12:12:50.676Z,5.28
2023-01-28T12:15:43.884Z,5.03
2023-01-28T12:18:23.752Z,6.03
2023-01-28T12:21:08.499Z,5.18
2023-01-28T12:23:52.759Z,4.55
2023-01-28T12:26:31.530Z,4.13
2023-01-28T12:29:09.447Z,4.47
2023-01-28T12:31:50.940Z,4.13
2023-01-28T12:34:38.160Z,5.60
2023-01-28T12:37:16.857Z,5.97
2023-01-28T12:39:57.299Z,6.00
2023-01-28T12:42:35.149Z,3.22
2023-01-28T12:45:16.502Z,5.43
2023-01-28T12:48:02.148Z,4.22
2023-01-28T12:50:36.945Z,3.92
2023-01-28T12:53:18.062Z,5.75
2023-01-28T12:55:52.646Z,4.75
2023-01-28T12:58:29.769Z,5.78
2023-01-28T13:01:05.226Z,10.00
2023-01-28T13:03:40.945Z,8.85
2023-01-28T13:06:15.128Z,11.43
2023-01-28T13:08:50.254Z,9.45
2023-01-28T13:11:33.688Z,7.57
2023-01-28T13:14:06.687Z,6.32
2023-01-28T13:16:39.155Z,6.10
2023-01-28T13:19:23.113Z,6.75
2023-01-28T13:21:55.510Z,5.80
2023-01-28T13:24:36.563Z,5.00
2023-01-28T13:27:13.515Z,6.07
2023-01-28T13:29:49.446Z,4.55
2023-01-28T13:32:32.414Z,4.32
2023-01-28T13:35:06.369Z,4.45
2023-01-28T13:37:40.286Z,3.55
2023-01-28T13:40:26.248Z,3.55
2023-01-28T13:42:59.427Z,3.70
2023-01-28T13:45:32.329Z,5.60
2023-01-28T13:48:16.252Z,5.07
2023-01-28T13:50:49.124Z,5.47
2023-01-28T13:53:24.737Z,5.43
2023-01-28T13:55:59.906Z,4.68
2023-01-28T13:58:53.103Z,4.88
2023-01-28T14:01:40.491Z,4.68
2023-01-28T14:04:27.967Z,3.25
2023-01-28T14:07:17.465Z,4.55
2023-01-28T14:10:08.514Z,4.22
2023-01-28T14:13:01.747Z,5.15
2023-01-28T14:15:49.447Z,5.55
2023-01-28T14:18:26.765Z,4.85
2023-01-28T14:21:02.108Z,6.20
2023-01-28T14:23:36.414Z,6.30
2023-01-28T14:26:15.082Z,5.88
2023-01-28T14:28:52.444Z,4.07
2023-01-28T14:31:31.587Z,4.40
2023-01-28T14:34:07.804Z,3.60
2023-01-28T14:36:41.309Z,4.28
2023-01-28T14:39:17.795Z,3.83
2023-01-28T14:41:51.539Z,5.43
2023-01-28T14:44:28.025Z,3.75
2023-01-28T14:47:15.225Z,4.00
2023-01-28T14:49:58.263Z,3.67
2023-01-28T14:52:48.212Z,3.78
2023-01-28T14:55:28.046Z,4.47
2023-01-28T14:58:03.154Z,4.15
2023-01-28T15:00:36.119Z,3.67
2023-01-28T15:03:25.021Z,3.60
2023-01-28T15:06:08.177Z,3.47
2023-01-28T15:08:40.586Z,2.50
2023-01-28T15:11:14.391Z,3.10
2023-01-28T15:13:48.380Z,3.30
2023-01-28T15:16:22.609Z,5.50
2023-01-28T15:18:54.964Z,3.03
2023-01-28T15:21:30.758Z,3.30
2023-01-28T15:24:03.327Z,4.35
2023-01-28T15:26:35.818Z,2.92
2023-01-28T15:29:08.193Z,5.95
2023-01-28T15:31:49.925Z,4.05
2023-01-28T15:34:23.561Z,3.65
2023-01-28T15:36:58.929Z,3.85
2023-01-28T15:39:31.356Z,3.85
2023-01-28T15:42:05.217Z,3.20
2023-01-28T15:44:38.981Z,2.63
2023-01-28T15:47:15.137Z,3.38
2023-01-28T15:49:48.537Z,2.67
2023-01-28T15:52:30.355Z,2.85
2023-01-28T15:55:03.116Z,3.85
2023-01-28T15:57:36.064Z,2.00
2023-01-28T16:00:13.362Z,2.35
2023-01-28T16:02:46.497Z,5.45
2023-01-28T16:05:29.044Z,3.13
2023-01-28T16:08:09.176Z,2.45
2023-01-28T16:10:41.512Z,2.20
2023-01-28T16:13:17.220Z,2.50
2023-01-28T16:15:50.665Z,2.78
2023-01-28T16:18:27.780Z,2.15
2023-01-28T16:21:00.456Z,4.57
2023-01-28T16:23:38.292Z,3.25
2023-01-28T16:26:21.343Z,3.45
2023-01-28T16:28:53.707Z,3.00
2023-01-28T16:31:26.147Z,4.97
2023-01-28T16:33:58.577Z,3.17
2023-01-28T16:36:30.932Z,3.25
2023-01-28T16:39:05.980Z,2.78
2023-01-28T16:41:40.131Z,4.22
2023-01-28T16:44:13.855Z,5.25
2023-01-28T16:46:46.965Z,6.32
2023-01-28T16:49:19.419Z,5.38
2023-01-28T16:51:51.827Z,3.03
2023-01-28T16:54:26.748Z,3.95
2023-01-28T16:56:59.167Z,4.13
2023-01-28T16:59:31.567Z,3.50
2023-01-28T17:02:03.876Z,3.40
2023-01-28T17:04:36.700Z,2.45
2023-01-28T17:07:09.303Z,3.38
2023-01-28T17:09:44.266Z,5.28
2023-01-28T17:12:16.802Z,5.03
2023-01-28T17:14:49.230Z,6.45
2023-01-28T17:17:21.577Z,4.15
2023-01-28T17:19:53.916Z,4.10
2023-01-28T17:22:26.266Z,3.78
2023-01-28T17:25:01.240Z,3.20
2023-01-28T17:27:33.577Z,5.53
2023-01-28T17:30:06.551Z,4.03
2023-01-28T17:32:39.033Z,4.25
2023-01-28T17:35:12.380Z,6.55
2023-01-28T17:37:44.764Z,3.95
2023-01-28T17:40:19.973Z,4.30
2023-01-28T17:42:52.417Z,5.05
2023-01-28T17:45:25.033Z,15.15
2023-01-28T17:47:57.401Z,9.75
2023-01-28T17:50:29.938Z,6.78
2023-01-28T17:53:02.333Z,12.48
2023-01-28T17:55:38.091Z,9.02
2023-01-28T17:58:10.504Z,6.40
2023-01-28T18:00:42.962Z,7.25
2023-01-28T18:03:15.384Z,6.22
2023-01-28T18:05:57.434Z,6.50
2023-01-28T18:08:29.825Z,6.97
2023-01-28T18:11:07.492Z,7.32
2023-01-28T18:13:40.437Z,6.57
2023-01-28T18:16:15.109Z,4.70
2023-01-28T18:18:48.382Z,5.47
2023-01-28T18:21:42.966Z,5.53
2023-01-28T18:24:19.258Z,4.13
2023-01-28T18:27:00.898Z,4.47
2023-01-28T18:29:33.323Z,4.43
2023-01-28T18:32:06.510Z,4.65
2023-01-28T18:34:38.963Z,6.03
2023-01-28T18:37:11.294Z,5.05
2023-01-28T18:39:44.641Z,4.55
2023-01-28T18:42:19.719Z,5.70
2023-01-28T18:44:52.118Z,6.38
2023-01-28T18:47:24.551Z,4.03
2023-01-28T18:49:56.913Z,4.90
2023-01-28T18:52:29.302Z,4.40
2023-01-28T18:55:01.673Z,3.90
2023-01-28T18:57:36.582Z,5.40
2023-01-28T19:00:09.671Z,4.57
2023-01-28T19:02:42.259Z,3.78
2023-01-28T19:05:16.354Z,4.63
2023-01-28T19:07:48.863Z,4.35
2023-01-28T19:10:23.732Z,5.97
2023-01-28T19:12:58.841Z,4.80
2023-01-28T19:15:31.304Z,6.57
2023-01-28T19:18:03.876Z,4.93
2023-01-28T19:20:36.229Z,5.85
2023-01-28T19:23:08.648Z,7.07
2023-01-28T19:25:41.263Z,5.90
2023-01-28T19:28:16.202Z,4.90
2023-01-28T19:30:48.621Z,9.40
2023-01-28T19:33:21.016Z,5.03
2023-01-28T19:35:56.233Z,6.70
2023-01-28T19:38:28.980Z,5.25
2023-01-28T19:41:04.148Z,4.13
2023-01-28T19:43:39.076Z,4.55
2023-01-28T19:46:14.367Z,3.70
2023-01-28T19:48:47.032Z,4.45
2023-01-28T19:51:19.480Z,5.05
2023-01-28T19:53:52.684Z,4.80
2023-01-28T19:56:25.959Z,7.70
2023-01-28T19:59:00.949Z,3.67
2023-01-28T20:01:33.379Z,4.38
2023-01-28T20:04:05.779Z,4.82
2023-01-28T20:06:38.283Z,5.03
2023-01-28T20:09:17.637Z,5.20
2023-01-28T20:11:50.025Z,4.07
2023-01-28T20:14:25.039Z,5.70
2023-01-28T20:19:29.652Z,5.13
2023-01-28T20:22:02.017Z,3.10
2023-01-28T20:24:34.709Z,4.38
2023-01-28T20:27:10.037Z,3.67
2023-01-28T20:29:45.028Z,3.50
2023-01-28T20:32:20.346Z,4.43
2023-01-28T20:37:25.641Z,6.60
2023-01-28T20:42:30.442Z,6.40
2023-01-28T20:45:05.738Z,6.80
2023-01-28T20:47:38.054Z,4.82
2023-01-28T20:50:11.142Z,5.93
2023-01-28T20:52:43.647Z,5.35
2023-01-28T20:55:16.241Z,5.13
2023-01-28T20:57:48.810Z,4.88
2023-01-28T21:00:24.615Z,4.35
2023-01-28T21:02:56.974Z,4.25
2023-01-28T21:05:29.748Z,2.95
2023-01-28T21:08:02.066Z,4.47
2023-01-28T21:10:35.388Z,4.30
2023-01-28T21:13:08.023Z,5.35
2023-01-28T21:15:51.386Z,5.15
2023-01-28T21:18:24.564Z,3.85
2023-01-28T21:21:02.612Z,4.65
2023-01-28T21:23:35.132Z,4.35
2023-01-28T21:26:07.677Z,5.38
2023-01-28T21:28:40.187Z,7.15
2023-01-28T21:31:16.319Z,4.40
2023-01-28T21:33:49.832Z,4.60
2023-01-28T21:36:24.741Z,4.45
2023-01-28T21:38:58.275Z,4.07
2023-01-28T21:41:30.977Z,4.47
2023-01-28T21:44:03.479Z,3.45
2023-01-28T21:46:38.539Z,5.47
2023-01-28T21:49:11.469Z,4.55
2023-01-28T21:51:47.343Z,3.92
2023-01-28T21:54:20.350Z,4.65
2023-01-28T21:56:52.999Z,5.70
2023-01-28T21:59:28.767Z,4.90
2023-01-28T22:02:05.503Z,4.00
2023-01-28T22:04:40.513Z,3.50
2023-01-28T22:07:13.798Z,3.50
2023-01-28T22:09:47.335Z,3.80
2023-01-28T22:12:21.679Z,3.30
2023-01-28T22:14:54.049Z,3.17
2023-01-28T22:17:29.038Z,4.55
2023-01-28T22:20:01.428Z,4.22
2023-01-28T22:22:33.789Z,4.10
2023-01-28T22:25:06.421Z,3.28
2023-01-28T22:27:38.769Z,3.50
2023-01-28T22:30:12.033Z,2.88
2023-01-28T22:32:48.306Z,5.57
2023-01-28T22:35:20.695Z,4.65
2023-01-28T22:37:53.055Z,3.80
2023-01-28T22:40:25.398Z,3.83
2023-01-28T22:42:57.752Z,5.15
2023-01-28T22:45:30.226Z,3.85
2023-01-28T22:48:05.377Z,4.88
2023-01-28T22:50:37.695Z,4.45
2023-01-28T22:53:10.042Z,5.18
2023-01-28T22:55:42.416Z,8.57
2023-01-28T22:58:14.796Z,15.00
2023-01-28T23:00:47.147Z,15.43
2023-01-28T23:03:22.438Z,10.48
2023-01-28T23:05:58.503Z,11.20
2023-01-28T23:08:31.761Z,5.57
2023-01-28T23:11:04.238Z,5.70
2023-01-28T23:13:55.501Z,5.88
2023-01-28T23:16:46.605Z,6.32
2023-01-28T23:19:40.419Z,4.75
2023-01-28T23:22:36.115Z,4.22
2023-01-28T23:25:09.092Z,4.10
2023-01-28T23:27:41.648Z,7.85
2023-01-28T23:30:15.219Z,4.80
2023-01-28T23:32:48.871Z,6.25
2023-01-28T23:35:27.089Z,5.50
2023-01-28T23:40:31.800Z,4.60
2023-01-28T23:43:05.768Z,5.00
2023-01-28T23:45:38.257Z,4.38
2023-01-28T23:48:11.064Z,3.65
2023-01-28T23:50:46.151Z,4.85
2023-01-28T23:53:18.652Z,3.55
2023-01-28T23:55:51.272Z,3.97
2023-01-28T23:58:41.855Z,4.28
